createdAt,value
2023-05-14T00:01:51.968Z,53.76
2023-05-14T00:04:19.679Z,53.13
2023-05-14T00:06:46.960Z,53.52
2023-05-14T00:09:16.367Z,54.59
2023-05-14T00:11:43.427Z,53.06
2023-05-14T00:14:10.552Z,54.26
2023-05-14T00:16:37.737Z,54.36
2023-05-14T00:19:05.057Z,53.97
2023-05-14T00:21:32.254Z,53.62
2023-05-14T00:24:01.626Z,54.37
2023-05-14T00:26:28.717Z,54.50
2023-05-14T00:28:55.834Z,54.02
2023-05-14T00:31:22.923Z,53.73
2023-05-14T00:33:50.001Z,53.44
2023-05-14T00:36:17.025Z,54.57
2023-05-14T00:38:44.097Z,53.74
2023-05-14T00:41:11.172Z,53.10
2023-05-14T00:43:38.276Z,53.59
2023-05-14T00:46:05.916Z,53.09
2023-05-14T00:48:33.094Z,54.15
2023-05-14T00:51:00.452Z,53.14
2023-05-14T00:53:27.735Z,53.81
2023-05-14T00:55:54.866Z,53.43
2023-05-14T00:58:22.714Z,54.33
2023-05-14T01:00:49.916Z,54.60
2023-05-14T01:03:19.204Z,54.24
2023-05-14T01:06:13.627Z,54.55
2023-05-14T01:09:32.593Z,55.33
2023-05-14T01:12:53.107Z,55.05
2023-05-14T01:15:31.166Z,53.45
2023-05-14T01:18:25.045Z,53.96
2023-05-14T01:20:52.704Z,54.48
2023-05-14T01:23:19.960Z,54.82
2023-05-14T01:25:47.166Z,55.30
2023-05-14T01:28:32.799Z,54.83
2023-05-14T01:31:25.134Z,55.79
2023-05-14T01:33:54.541Z,55.32
2023-05-14T01:36:23.022Z,53.86
2023-05-14T01:38:52.779Z,54.36
2023-05-14T01:41:21.276Z,53.71
2023-05-14T01:43:48.643Z,54.19
2023-05-14T01:46:19.741Z,54.05
2023-05-14T01:48:46.966Z,54.41
2023-05-14T01:51:14.684Z,54.93
2023-05-14T01:53:41.793Z,54.55
2023-05-14T01:56:08.878Z,55.87
2023-05-14T01:58:35.998Z,55.90
2023-05-14T02:01:03.104Z,56.60
2023-05-14T02:03:30.163Z,55.52
2023-05-14T02:05:57.226Z,55.45
2023-05-14T02:08:24.368Z,54.43
2023-05-14T02:10:51.455Z,56.08
2023-05-14T02:13:21.638Z,55.72
2023-05-14T02:15:49.804Z,55.06
2023-05-14T02:18:17.016Z,55.18
2023-05-14T02:20:44.253Z,54.30
2023-05-14T02:23:11.374Z,54.58
2023-05-14T02:25:38.762Z,53.96
2023-05-14T02:28:05.845Z,54.18
2023-05-14T02:30:33.053Z,52.57
2023-05-14T02:33:00.452Z,53.07
2023-05-14T02:35:27.539Z,53.57
2023-05-14T02:37:54.702Z,52.49
2023-05-14T02:40:21.923Z,52.40
2023-05-14T02:42:51.346Z,53.41
2023-05-14T02:45:18.502Z,52.66
2023-05-14T02:47:45.864Z,51.94
2023-05-14T02:50:12.967Z,52.26
2023-05-14T02:52:40.142Z,53.20
2023-05-14T02:55:07.785Z,51.40
2023-05-14T02:57:34.976Z,50.79
2023-05-14T03:00:02.323Z,50.12
2023-05-14T03:02:29.882Z,51.40
2023-05-14T03:04:57.638Z,50.82
2023-05-14T03:07:24.700Z,51.44
2023-05-14T03:09:51.726Z,50.18
2023-05-14T03:12:19.332Z,51.61
2023-05-14T03:14:46.377Z,51.70
2023-05-14T03:17:13.470Z,51.96
2023-05-14T03:19:40.572Z,51.40
2023-05-14T03:22:07.639Z,50.27
2023-05-14T03:24:35.261Z,50.09
2023-05-14T03:27:02.282Z,50.48
2023-05-14T03:29:29.583Z,52.51
2023-05-14T03:31:56.678Z,51.54
2023-05-14T03:34:23.904Z,52.74
2023-05-14T03:36:53.169Z,51.48
2023-05-14T03:39:20.990Z,50.11
2023-05-14T03:41:48.697Z,50.39
2023-05-14T03:44:16.959Z,52.00
2023-05-14T03:46:44.402Z,51.87
2023-05-14T03:49:11.500Z,52.34
2023-05-14T03:51:38.567Z,52.53
2023-05-14T03:54:05.818Z,52.66
2023-05-14T03:56:32.870Z,52.27
2023-05-14T03:58:59.944Z,52.57
2023-05-14T04:01:27.052Z,51.42
2023-05-14T04:03:54.337Z,51.93
2023-05-14T04:06:21.501Z,50.73
2023-05-14T04:08:48.598Z,51.62
2023-05-14T04:11:15.714Z,50.95
2023-05-14T04:13:42.804Z,50.90
2023-05-14T04:16:09.853Z,49.91
2023-05-14T04:18:37.090Z,49.68
2023-05-14T04:21:04.402Z,49.34
2023-05-14T04:23:31.883Z,50.08
2023-05-14T04:25:59.357Z,49.56
2023-05-14T04:28:26.468Z,49.82
2023-05-14T04:30:53.494Z,48.91
2023-05-14T04:33:20.689Z,49.75
2023-05-14T04:35:47.927Z,50.38
2023-05-14T04:38:15.264Z,49.41
2023-05-14T04:40:42.796Z,48.08
2023-05-14T04:43:10.559Z,48.64
2023-05-14T04:45:37.794Z,49.22
2023-05-14T04:48:05.834Z,48.99
2023-05-14T04:50:32.916Z,48.13
2023-05-14T04:52:59.989Z,48.27
2023-05-14T04:55:27.243Z,45.97
2023-05-14T04:57:54.341Z,45.39
2023-05-14T05:00:22.147Z,45.45
2023-05-14T05:02:49.768Z,45.19
2023-05-14T05:05:16.953Z,46.05
2023-05-14T05:07:43.993Z,46.43
2023-05-14T05:10:11.257Z,44.73
2023-05-14T05:12:38.526Z,46.01
2023-05-14T05:15:07.027Z,45.01
2023-05-14T05:17:34.257Z,45.92
2023-05-14T05:20:01.317Z,45.57
2023-05-14T05:22:28.359Z,46.22
2023-05-14T05:24:55.435Z,47.94
2023-05-14T05:27:22.589Z,47.46
2023-05-14T05:29:49.634Z,48.42
2023-05-14T05:32:16.709Z,48.08
2023-05-14T05:34:43.842Z,47.24
2023-05-14T05:37:12.748Z,47.89
2023-05-14T05:39:40.202Z,48.06
2023-05-14T05:42:08.040Z,49.01
2023-05-14T05:44:35.466Z,47.83
2023-05-14T05:47:02.701Z,49.35
2023-05-14T05:49:31.169Z,48.36
2023-05-14T05:52:16.894Z,48.52
2023-05-14T05:54:43.956Z,48.12
2023-05-14T05:57:11.234Z,46.99
2023-05-14T05:59:38.339Z,47.66
2023-05-14T06:02:05.745Z,46.80
2023-05-14T06:04:32.940Z,48.53
2023-05-14T06:06:59.995Z,47.16
2023-05-14T06:09:27.040Z,47.04
2023-05-14T06:11:54.098Z,45.60
2023-05-14T06:14:21.129Z,46.60
2023-05-14T06:16:48.218Z,46.31
2023-05-14T06:19:15.395Z,46.18
2023-05-14T06:21:42.538Z,43.81
2023-05-14T06:24:10.400Z,45.67
2023-05-14T06:26:37.544Z,45.98
2023-05-14T06:29:04.630Z,45.51
2023-05-14T06:31:31.787Z,46.01
2023-05-14T06:33:58.817Z,45.26
2023-05-14T06:36:25.892Z,45.77
2023-05-14T06:38:52.928Z,45.01
2023-05-14T06:41:19.979Z,45.10
2023-05-14T06:43:47.022Z,43.86
2023-05-14T06:46:16.359Z,43.64
2023-05-14T06:48:43.455Z,45.13
2023-05-14T06:51:11.112Z,44.04
2023-05-14T06:53:41.162Z,44.41
2023-05-14T06:56:08.266Z,43.03
2023-05-14T06:58:35.345Z,43.17
2023-05-14T07:01:02.441Z,42.20
2023-05-14T07:03:29.532Z,42.15
2023-05-14T07:05:56.608Z,41.83
2023-05-14T07:08:23.659Z,41.09
2023-05-14T07:10:50.746Z,41.97
2023-05-14T07:13:18.022Z,41.97
2023-05-14T07:15:45.174Z,43.15
2023-05-14T07:18:12.200Z,42.63
2023-05-14T07:20:40.600Z,41.35
2023-05-14T07:23:10.587Z,40.26
2023-05-14T07:25:40.753Z,39.78
2023-05-14T07:28:07.801Z,39.02
2023-05-14T07:30:34.858Z,40.13
2023-05-14T07:33:02.029Z,38.85
2023-05-14T07:35:29.195Z,38.26
2023-05-14T07:37:56.501Z,39.75
2023-05-14T07:40:25.514Z,39.46
2023-05-14T07:42:52.915Z,38.34
2023-05-14T07:45:20.253Z,38.78
2023-05-14T07:47:51.852Z,39.01
2023-05-14T07:50:19.755Z,38.15
2023-05-14T07:52:46.920Z,41.07
2023-05-14T07:55:14.181Z,41.32
2023-05-14T07:57:41.366Z,41.25
2023-05-14T08:00:09.240Z,39.92
2023-05-14T08:02:36.623Z,40.36
2023-05-14T08:05:04.553Z,40.06
2023-05-14T08:07:31.765Z,38.99
2023-05-14T08:10:02.007Z,41.12
2023-05-14T08:12:29.828Z,41.14
2023-05-14T08:14:56.945Z,41.51
2023-05-14T08:17:24.015Z,40.33
2023-05-14T08:19:51.117Z,39.97
2023-05-14T08:22:18.165Z,39.98
2023-05-14T08:24:45.187Z,39.84
2023-05-14T08:27:12.216Z,39.21
2023-05-14T08:29:39.526Z,39.02
2023-05-14T08:32:19.385Z,37.74
2023-05-14T08:34:50.795Z,37.64
2023-05-14T08:37:17.969Z,38.28
2023-05-14T08:39:45.161Z,37.59
2023-05-14T08:42:15.632Z,37.89
2023-05-14T08:45:04.410Z,38.02
2023-05-14T08:47:31.666Z,36.52
2023-05-14T08:50:06.507Z,38.33
2023-05-14T08:52:34.795Z,37.32
2023-05-14T08:55:06.214Z,37.22
2023-05-14T08:57:36.786Z,35.62
2023-05-14T09:00:11.520Z,37.20
2023-05-14T09:02:43.080Z,37.18
2023-05-14T09:05:10.805Z,37.53
2023-05-14T09:07:38.483Z,35.94
2023-05-14T09:10:06.684Z,34.40
2023-05-14T09:12:33.798Z,35.58
2023-05-14T09:15:00.937Z,35.34
2023-05-14T09:17:28.310Z,35.67
2023-05-14T09:19:55.812Z,33.30
2023-05-14T09:22:22.912Z,36.39
2023-05-14T09:25:09.467Z,34.17
2023-05-14T09:27:36.863Z,32.39
2023-05-14T09:30:09.431Z,32.94
2023-05-14T09:32:49.868Z,35.06
2023-05-14T09:35:25.856Z,33.64
2023-05-14T09:37:55.356Z,34.65
2023-05-14T09:40:24.658Z,33.60
2023-05-14T09:42:52.145Z,34.09
2023-05-14T09:45:19.195Z,31.07
2023-05-14T09:47:46.396Z,31.77
2023-05-14T09:50:13.759Z,32.63
2023-05-14T09:52:41.216Z,30.57
2023-05-14T09:55:08.959Z,28.93
2023-05-14T09:57:36.584Z,30.59
2023-05-14T10:00:04.485Z,32.88
2023-05-14T10:02:41.508Z,33.95
2023-05-14T10:05:09.829Z,28.84
2023-05-14T10:07:48.265Z,30.59
2023-05-14T10:10:24.442Z,31.78
2023-05-14T10:12:58.746Z,29.75
2023-05-14T10:15:52.948Z,32.50
2023-05-14T10:18:22.532Z,30.45
2023-05-14T10:21:06.830Z,29.56
2023-05-14T10:23:37.771Z,28.37
2023-05-14T10:26:05.746Z,27.88
2023-05-14T10:28:33.610Z,27.44
2023-05-14T10:31:01.322Z,27.10
2023-05-14T10:33:28.680Z,28.78
2023-05-14T10:36:10.048Z,28.54
2023-05-14T10:38:38.529Z,29.07
2023-05-14T10:41:10.926Z,29.89
2023-05-14T10:43:41.621Z,29.56
2023-05-14T10:46:12.202Z,29.61
2023-05-14T10:48:44.194Z,27.29
2023-05-14T10:51:12.526Z,24.52
2023-05-14T10:53:42.968Z,26.70
2023-05-14T10:56:14.589Z,26.50
2023-05-14T10:58:46.093Z,29.12
2023-05-14T11:01:14.239Z,28.55
2023-05-14T11:03:45.449Z,29.31
2023-05-14T11:06:15.386Z,28.22
2023-05-14T11:08:43.030Z,27.91
2023-05-14T11:11:10.946Z,28.21
2023-05-14T11:13:41.714Z,31.99
2023-05-14T11:16:21.851Z,30.35
2023-05-14T11:19:03.505Z,29.65
2023-05-14T11:21:32.781Z,30.87
2023-05-14T11:24:05.294Z,29.78
2023-05-14T11:26:33.049Z,29.22
2023-05-14T11:29:00.608Z,30.50
2023-05-14T11:31:28.435Z,31.01
2023-05-14T11:33:55.932Z,29.16
2023-05-14T11:36:23.170Z,32.33
2023-05-14T11:38:52.362Z,30.26
2023-05-14T11:41:21.555Z,29.50
2023-05-14T11:43:49.035Z,29.88
2023-05-14T11:46:19.348Z,29.61
2023-05-14T11:48:46.762Z,30.54
2023-05-14T11:51:15.075Z,27.92
2023-05-14T11:53:42.331Z,30.33
2023-05-14T11:56:10.085Z,30.43
2023-05-14T11:58:37.542Z,31.17
2023-05-14T12:01:04.841Z,31.11
2023-05-14T12:03:32.174Z,31.95
2023-05-14T12:06:02.094Z,30.88
2023-05-14T12:08:31.687Z,32.21
2023-05-14T12:11:00.994Z,32.71
2023-05-14T12:13:31.193Z,31.02
2023-05-14T12:16:01.935Z,31.33
2023-05-14T12:18:32.340Z,30.45
2023-05-14T12:21:05.891Z,30.84
2023-05-14T12:23:33.365Z,30.97
2023-05-14T12:26:08.958Z,30.42
2023-05-14T12:28:43.462Z,29.20
2023-05-14T12:31:11.844Z,30.02
2023-05-14T12:33:41.281Z,29.54
2023-05-14T12:38:41.752Z,29.93
2023-05-14T12:41:08.969Z,31.23
2023-05-14T12:43:36.384Z,30.24
2023-05-14T12:46:03.533Z,31.09
2023-05-14T12:48:30.593Z,28.48
2023-05-14T12:50:57.635Z,30.40
2023-05-14T12:53:24.752Z,27.81
2023-05-14T12:55:54.444Z,30.40
2023-05-14T12:58:21.522Z,29.69
2023-05-14T13:00:51.281Z,28.60
2023-05-14T13:03:18.834Z,29.22
2023-05-14T13:05:46.189Z,30.76
2023-05-14T13:08:17.617Z,27.80
2023-05-14T13:10:45.464Z,30.78
2023-05-14T13:13:14.950Z,31.78
2023-05-14T13:15:42.641Z,30.93
2023-05-14T13:18:09.776Z,30.87
2023-05-14T13:20:37.128Z,32.67
2023-05-14T13:23:04.189Z,31.33
2023-05-14T13:25:31.296Z,28.90
2023-05-14T13:27:58.625Z,29.56
2023-05-14T13:30:25.752Z,28.63
2023-05-14T13:32:52.861Z,28.21
2023-05-14T13:35:19.951Z,27.84
2023-05-14T13:37:47.649Z,27.42
2023-05-14T13:40:14.796Z,28.64
2023-05-14T13:42:41.870Z,27.57
2023-05-14T13:45:11.472Z,30.06
2023-05-14T13:47:41.457Z,28.62
2023-05-14T13:50:09.013Z,29.02
2023-05-14T13:52:36.525Z,27.86
2023-05-14T13:55:04.200Z,27.72
2023-05-14T13:57:31.250Z,27.54
2023-05-14T13:59:58.367Z,29.45
2023-05-14T14:02:25.545Z,31.10
2023-05-14T14:04:52.749Z,30.90
2023-05-14T14:07:21.139Z,31.23
2023-05-14T14:09:48.269Z,30.60
2023-05-14T14:12:15.502Z,31.02
2023-05-14T14:14:44.570Z,31.00
2023-05-14T14:17:11.889Z,31.21
2023-05-14T14:19:38.957Z,30.42
2023-05-14T14:22:06.084Z,30.38
2023-05-14T14:24:33.181Z,31.75
2023-05-14T14:27:03.771Z,31.49
2023-05-14T14:29:31.189Z,31.54
2023-05-14T14:31:59.111Z,31.67
2023-05-14T14:34:26.366Z,31.69
2023-05-14T14:36:53.523Z,31.36
2023-05-14T14:39:21.735Z,32.16
2023-05-14T14:41:48.868Z,31.06
2023-05-14T14:44:15.971Z,31.23
2023-05-14T14:46:43.024Z,31.34
2023-05-14T14:49:10.113Z,30.83
2023-05-14T14:51:37.313Z,31.75
2023-05-14T14:54:07.210Z,31.69
2023-05-14T14:56:34.631Z,31.79
2023-05-14T14:59:02.113Z,31.44
2023-05-14T15:01:29.281Z,31.17
2023-05-14T15:03:58.678Z,33.25
2023-05-14T15:06:25.724Z,32.24
2023-05-14T15:08:52.865Z,32.01
2023-05-14T15:11:21.329Z,30.90
2023-05-14T15:13:49.652Z,31.91
2023-05-14T15:16:16.926Z,32.62
2023-05-14T15:18:44.070Z,33.40
2023-05-14T15:21:11.237Z,33.73
2023-05-14T15:23:38.335Z,33.55
2023-05-14T15:26:05.652Z,30.81
2023-05-14T15:28:33.184Z,32.54
2023-05-14T15:31:02.309Z,31.33
2023-05-14T15:33:33.863Z,31.34
2023-05-14T15:36:00.906Z,32.37
2023-05-14T15:38:28.221Z,31.66
2023-05-14T15:40:55.312Z,33.22
2023-05-14T15:43:22.552Z,33.06
2023-05-14T15:45:55.944Z,33.03
2023-05-14T15:48:23.017Z,33.09
2023-05-14T15:50:50.245Z,32.50
2023-05-14T15:53:19.705Z,32.95
2023-05-14T15:55:49.029Z,33.25
2023-05-14T15:58:16.097Z,33.53
2023-05-14T16:00:43.226Z,33.75
2023-05-14T16:03:11.004Z,34.17
2023-05-14T16:05:38.251Z,33.48
2023-05-14T16:08:06.324Z,33.54
2023-05-14T16:10:33.554Z,33.67
2023-05-14T16:13:00.892Z,33.84
2023-05-14T16:15:28.285Z,31.92
2023-05-14T16:17:55.730Z,33.39
2023-05-14T16:20:23.341Z,33.69
2023-05-14T16:22:50.526Z,33.39
2023-05-14T16:25:19.795Z,33.48
2023-05-14T16:27:46.881Z,32.85
2023-05-14T16:30:14.233Z,31.86
2023-05-14T16:32:42.060Z,32.82
2023-05-14T16:35:09.884Z,32.49
2023-05-14T16:37:36.962Z,33.21
2023-05-14T16:40:04.880Z,33.79
2023-05-14T16:42:31.978Z,33.07
2023-05-14T16:44:59.025Z,33.62
2023-05-14T16:47:26.067Z,33.64
2023-05-14T16:49:53.293Z,34.44
2023-05-14T16:52:23.318Z,33.96
2023-05-14T16:54:50.900Z,34.49
2023-05-14T16:57:18.003Z,35.00
2023-05-14T16:59:45.291Z,34.70
2023-05-14T17:02:12.324Z,34.99
2023-05-14T17:04:42.035Z,35.99
2023-05-14T17:07:09.510Z,35.67
2023-05-14T17:09:36.604Z,34.18
2023-05-14T17:12:04.343Z,35.83
2023-05-14T17:14:31.671Z,35.32
2023-05-14T17:16:58.851Z,36.28
2023-05-14T17:19:26.120Z,37.32
2023-05-14T17:21:53.186Z,38.15
2023-05-14T17:24:20.295Z,38.27
2023-05-14T17:26:47.582Z,38.72
2023-05-14T17:29:15.813Z,38.88
2023-05-14T17:31:43.201Z,38.77
2023-05-14T17:34:10.385Z,41.27
2023-05-14T17:36:37.480Z,37.85
2023-05-14T17:39:04.622Z,37.65
2023-05-14T17:41:31.723Z,38.81
2023-05-14T17:43:59.985Z,38.30
2023-05-14T17:46:27.180Z,37.67
2023-05-14T17:48:58.124Z,37.81
2023-05-14T17:51:27.567Z,37.09
2023-05-14T17:53:54.627Z,37.33
2023-05-14T17:56:22.083Z,36.97
2023-05-14T17:58:49.869Z,36.86
2023-05-14T18:01:16.941Z,37.22
2023-05-14T18:03:44.248Z,37.85
2023-05-14T18:06:11.570Z,37.91
2023-05-14T18:08:41.169Z,38.38
2023-05-14T18:11:08.479Z,38.24
2023-05-14T18:13:38.122Z,37.91
2023-05-14T18:16:05.756Z,38.23
2023-05-14T18:18:33.073Z,37.58
2023-05-14T18:21:00.510Z,42.22
2023-05-14T18:23:27.837Z,40.74
2023-05-14T18:25:55.054Z,43.12
2023-05-14T18:28:24.563Z,40.19
2023-05-14T18:30:51.823Z,43.06
2023-05-14T18:33:18.930Z,41.31
2023-05-14T18:35:46.001Z,40.46
2023-05-14T18:38:13.765Z,42.55
2023-05-14T18:40:40.946Z,42.80
2023-05-14T18:43:08.037Z,45.20
2023-05-14T18:45:35.216Z,44.58
2023-05-14T18:48:02.279Z,43.36
2023-05-14T18:50:29.488Z,44.23
2023-05-14T18:52:59.326Z,44.85
2023-05-14T18:55:26.587Z,45.75
2023-05-14T18:57:54.097Z,46.95
2023-05-14T19:00:21.245Z,47.70
2023-05-14T19:02:48.380Z,49.50
2023-05-14T19:05:15.559Z,49.79
2023-05-14T19:07:43.680Z,48.60
2023-05-14T19:10:11.162Z,47.32
2023-05-14T19:12:38.235Z,46.37
2023-05-14T19:15:06.441Z,45.66
2023-05-14T19:17:33.891Z,47.44
2023-05-14T19:20:00.924Z,45.34
2023-05-14T19:22:28.021Z,46.14
2023-05-14T19:24:55.113Z,49.60
2023-05-14T19:27:24.024Z,50.10
2023-05-14T19:29:51.181Z,50.88
2023-05-14T19:32:18.341Z,51.57
2023-05-14T19:34:45.412Z,50.84
2023-05-14T19:37:12.451Z,52.70
2023-05-14T19:39:39.540Z,53.28
2023-05-14T19:42:06.838Z,53.55
2023-05-14T19:44:33.920Z,53.38
2023-05-14T19:47:01.324Z,53.26
2023-05-14T19:49:28.419Z,52.34
2023-05-14T19:51:55.460Z,50.79
2023-05-14T19:54:24.602Z,50.38
2023-05-14T19:56:51.698Z,48.12
2023-05-14T19:59:18.723Z,49.57
2023-05-14T20:01:47.090Z,50.50
2023-05-14T20:04:16.066Z,51.95
2023-05-14T20:06:45.435Z,52.80
2023-05-14T20:09:13.630Z,54.16
2023-05-14T20:11:40.781Z,54.99
2023-05-14T20:14:07.824Z,55.37
2023-05-14T20:16:34.889Z,55.76
2023-05-14T20:19:02.240Z,54.42
2023-05-14T20:21:29.540Z,54.95
2023-05-14T20:23:56.727Z,54.78
2023-05-14T20:26:23.876Z,54.44
2023-05-14T20:28:50.959Z,52.97
2023-05-14T20:31:19.109Z,53.71
2023-05-14T20:33:46.160Z,53.92
2023-05-14T20:36:13.263Z,53.79
2023-05-14T20:38:40.769Z,54.17
2023-05-14T20:41:08.976Z,55.66
2023-05-14T20:43:36.054Z,56.58
2023-05-14T20:46:05.679Z,56.57
2023-05-14T20:48:32.774Z,55.96
2023-05-14T20:50:59.947Z,55.82
2023-05-14T20:53:28.657Z,56.17
2023-05-14T20:55:55.773Z,57.01
2023-05-14T20:58:22.810Z,59.04
2023-05-14T21:00:52.479Z,60.28
2023-05-14T21:03:19.671Z,59.03
2023-05-14T21:05:46.935Z,60.10
2023-05-14T21:08:14.009Z,57.15
2023-05-14T21:10:41.073Z,53.00
2023-05-14T21:13:08.530Z,54.13
2023-05-14T21:15:35.686Z,60.28
2023-05-14T21:18:03.153Z,58.10
2023-05-14T21:20:33.092Z,58.61
2023-05-14T21:23:00.266Z,56.98
2023-05-14T21:25:27.496Z,56.72
2023-05-14T21:27:54.605Z,58.51
2023-05-14T21:30:22.431Z,55.82
2023-05-14T21:32:49.555Z,54.72
2023-05-14T21:35:16.750Z,55.09
2023-05-14T21:37:43.984Z,55.27
2023-05-14T21:40:14.965Z,54.15
2023-05-14T21:42:42.022Z,54.26
2023-05-14T21:45:09.832Z,56.06
2023-05-14T21:47:37.971Z,58.35
2023-05-14T21:50:06.827Z,61.19
2023-05-14T21:52:33.889Z,60.89
2023-05-14T21:55:00.931Z,57.19
2023-05-14T21:57:29.206Z,55.09
2023-05-14T21:59:58.115Z,54.11
2023-05-14T22:02:25.333Z,53.87
2023-05-14T22:04:52.583Z,53.46
2023-05-14T22:07:19.798Z,53.19
2023-05-14T22:09:48.217Z,54.72
2023-05-14T22:12:15.408Z,57.29
2023-05-14T22:14:42.539Z,56.71
2023-05-14T22:17:09.699Z,54.91
2023-05-14T22:19:36.765Z,57.61
2023-05-14T22:22:04.129Z,57.81
2023-05-14T22:24:31.195Z,58.89
2023-05-14T22:26:58.235Z,62.17
2023-05-14T22:29:25.381Z,62.12
2023-05-14T22:31:52.660Z,61.90
2023-05-14T22:34:19.863Z,62.87
2023-05-14T22:36:47.061Z,63.09
2023-05-14T22:39:15.462Z,62.67
2023-05-14T22:41:42.592Z,62.12
2023-05-14T22:44:09.712Z,62.77
2023-05-14T22:46:36.905Z,62.05
2023-05-14T22:49:04.014Z,64.06
2023-05-14T22:51:31.150Z,64.98
2023-05-14T22:53:58.329Z,64.01
2023-05-14T22:56:25.608Z,62.61
2023-05-14T22:58:52.649Z,62.11
2023-05-14T23:01:19.721Z,62.61
2023-05-14T23:03:46.809Z,63.25
2023-05-14T23:06:14.726Z,64.34
2023-05-14T23:08:42.901Z,64.06
2023-05-14T23:11:10.267Z,64.15
2023-05-14T23:13:37.332Z,61.08
2023-05-14T23:16:05.956Z,60.14
2023-05-14T23:18:33.183Z,58.68
2023-05-14T23:21:00.400Z,61.49
2023-05-14T23:23:27.468Z,64.02
2023-05-14T23:25:55.944Z,65.05
2023-05-14T23:28:24.123Z,64.49
2023-05-14T23:30:51.171Z,64.06
2023-05-14T23:33:19.004Z,63.58
2023-05-14T23:35:46.199Z,64.13
2023-05-14T23:38:14.450Z,64.19
2023-05-14T23:40:41.502Z,62.29
2023-05-14T23:43:08.578Z,63.62
2023-05-14T23:45:37.994Z,63.60
2023-05-14T23:48:05.838Z,62.39
2023-05-14T23:50:32.909Z,63.01
2023-05-14T23:52:59.985Z,63.61
2023-05-14T23:55:27.254Z,64.73
2023-05-14T23:57:54.429Z,65.28
